Time;durP1;ratioP1;P1;durP2;ratioP2;P2;SDS_P1;SDS_P2;PMS_P1;PMS_P2;Temp;Humidity;BMP_temperature;BMP_pressure;BME280_temperature;BME280_humidity;BME280_pressure;Samples;Min_cycle;Max_cycle;Signal;HPM_P1;HPM_P2
2022/08/02 00:01:49;;;;;;;7.20;4.68;;;;;;;19.53;44.60;99921.84;5050664;28;20041;-49
2022/08/02 00:04:15;;;;;;;6.07;3.97;;;;;;;19.46;44.57;99912.75;5049582;28;20037;-48
2022/08/02 00:06:40;;;;;;;8.02;4.20;;;;;;;19.47;44.52;99930.72;5049995;28;20124;-51
2022/08/02 00:09:06;;;;;;;8.95;3.85;;;;;;;19.41;44.80;99917.88;5050480;28;20227;-46
2022/08/02 00:11:32;;;;;;;9.20;3.90;;;;;;;19.35;45.13;99925.72;5034199;28;20525;-48
2022/08/02 00:13:57;;;;;;;9.88;4.32;;;;;;;19.38;44.85;99920.97;5030829;28;20038;-52
2022/08/02 00:16:23;;;;;;;7.35;3.70;;;;;;;19.36;45.03;99926.56;5035271;28;20033;-51
2022/08/02 00:18:48;;;;;;;8.65;4.07;;;;;;;19.34;45.19;99921.31;5050358;28;20458;-50
2022/08/02 00:21:14;;;;;;;6.28;4.28;;;;;;;19.32;45.07;99917.94;5048997;28;20035;-52
2022/08/02 00:23:40;;;;;;;7.65;3.80;;;;;;;19.32;45.12;99911.66;5049874;28;20041;-62
2022/08/02 00:26:06;;;;;;;7.53;4.38;;;;;;;19.25;45.30;99906.09;5050617;28;20029;-49
2022/08/02 00:28:31;;;;;;;7.90;4.60;;;;;;;19.20;45.59;99909.38;5050053;28;20415;-50
2022/08/02 00:30:57;;;;;;;6.82;4.40;;;;;;;19.20;45.65;99919.34;5050212;28;20465;-48
2022/08/02 00:33:23;;;;;;;10.88;4.32;;;;;;;19.06;45.82;99891.97;5036129;28;20076;-47
2022/08/02 00:35:49;;;;;;;12.20;4.82;;;;;;;18.97;46.07;99887.56;5032003;28;20037;-50
2022/08/02 00:38:14;;;;;;;9.77;5.03;;;;;;;19.07;46.28;99912.66;5049710;28;20029;-48
2022/08/02 00:40:40;;;;;;;10.85;5.03;;;;;;;19.03;46.21;99913.19;5043555;28;20040;-47
2022/08/02 00:43:08;;;;;;;9.10;5.10;;;;;;;19.01;46.42;99909.81;5028931;28;20034;-48
2022/08/02 00:45:35;;;;;;;9.27;4.45;;;;;;;18.99;46.30;99904.53;5029548;28;20127;-48
2022/08/02 00:48:02;;;;;;;13.10;4.60;;;;;;;18.92;46.72;99900.81;5030085;28;20045;-50
2022/08/02 00:50:28;;;;;;;7.35;4.53;;;;;;;18.90;46.70;99903.69;5032971;28;20108;-51
2022/08/02 00:52:55;;;;;;;8.30;4.57;;;;;;;18.87;46.65;99914.06;5034245;28;20168;-48
2022/08/02 00:55:20;;;;;;;7.80;4.30;;;;;;;18.85;46.77;99916.13;5034535;28;20032;-49
2022/08/02 00:57:46;;;;;;;8.02;4.80;;;;;;;18.79;46.84;99904.09;5033574;28;20036;-49
2022/08/02 01:00:12;;;;;;;6.82;4.43;;;;;;;18.79;47.33;99907.63;5054119;28;20033;-64
2022/08/02 01:02:38;;;;;;;11.38;5.07;;;;;;;18.77;47.27;99904.25;5054086;28;20469;-52
2022/08/02 01:05:04;;;;;;;13.02;4.60;;;;;;;18.75;47.38;99906.31;5053210;28;20025;-54
2022/08/02 01:07:30;;;;;;;5.68;4.28;;;;;;;18.59;47.49;99888.22;5051279;28;20405;-52
2022/08/02 01:09:55;;;;;;;10.13;4.45;;;;;;;18.63;47.57;99891.44;5035512;28;20040;-53
2022/08/02 01:12:21;;;;;;;10.40;4.63;;;;;;;18.69;47.54;99906.16;5053284;28;20098;-49
2022/08/02 01:14:50;;;;;;;12.40;5.10;;;;;;;18.70;47.57;99911.41;5053292;28;20363;-52
2022/08/02 01:17:26;;;;;;;9.25;4.22;;;;;;;18.74;47.46;99906.50;5038957;28;20072;-47
2022/08/02 01:20:01;;;;;;;8.95;4.70;;;;;;;18.68;47.74;99912.59;5051848;28;20040;-49
2022/08/02 01:22:26;;;;;;;9.13;4.53;;;;;;;18.61;47.92;99904.34;5052795;28;20037;-48
2022/08/02 01:25:30;;;;;;;12.82;4.13;;;;;;;18.70;47.60;99911.41;5053238;28;20468;-49
2022/08/02 01:28:14;;;;;;;9.40;5.00;;;;;;;18.71;47.19;99910.41;5034048;28;20109;-50
2022/08/02 01:30:43;;;;;;;13.93;5.25;;;;;;;18.63;48.02;99905.00;5046048;28;20043;-47
2022/08/02 01:33:15;;;;;;;12.75;4.90;;;;;;;18.67;47.65;99903.63;5053201;28;20028;-48
2022/08/02 01:35:44;;;;;;;9.70;4.53;;;;;;;18.64;48.10;99909.41;5052720;28;20044;-53
2022/08/02 01:38:20;;;;;;;11.55;4.45;;;;;;;18.60;48.35;99911.63;5052089;28;20496;-51
2022/08/02 01:40:48;;;;;;;7.55;4.57;;;;;;;18.55;48.27;99910.44;5052958;28;20036;-52
2022/08/02 01:43:14;;;;;;;10.30;4.22;;;;;;;18.50;48.47;99898.25;5033724;28;20072;-48
2022/08/02 01:45:41;;;;;;;12.80;4.75;;;;;;;18.51;48.47;99907.25;5032904;28;20073;-53
2022/08/02 01:48:09;;;;;;;10.23;4.60;;;;;;;18.55;48.42;99915.84;5051693;28;20044;-53
2022/08/02 01:50:36;;;;;;;9.02;4.80;;;;;;;18.39;48.44;99887.78;5052956;28;20044;-47
2022/08/02 01:53:05;;;;;;;8.50;4.90;;;;;;;18.54;48.73;99911.47;5052595;28;20150;-46
2022/08/02 01:55:38;;;;;;;13.13;4.65;;;;;;;18.54;48.92;99911.47;5052436;28;20068;-50
2022/08/02 01:58:06;;;;;;;11.52;4.90;;;;;;;18.51;48.60;99910.78;5040569;28;20125;-50
2022/08/02 02:00:38;;;;;;;12.90;4.65;;;;;;;18.67;48.68;99917.19;5051540;28;20032;-54
2022/08/02 02:03:07;;;;;;;9.65;4.72;;;;;;;18.65;48.82;99921.94;5052042;28;20029;-49
2022/08/02 02:05:35;;;;;;;5.93;4.25;;;;;;;18.60;48.70;99913.50;5039053;28;20045;-51
2022/08/02 02:08:04;;;;;;;13.35;5.10;;;;;;;18.75;48.81;99914.44;5032799;28;20079;-47
2022/08/02 02:10:34;;;;;;;13.55;4.90;;;;;;;18.76;48.83;99918.84;5032299;28;20045;-49
2022/08/02 02:13:11;;;;;;;9.60;4.80;;;;;;;18.81;49.09;99931.88;5032114;28;20041;-52
2022/08/02 02:15:42;;;;;;;11.70;5.00;;;;;;;18.81;48.83;99926.47;5044226;28;20520;-47
2022/08/02 02:18:09;;;;;;;12.15;4.50;;;;;;;18.77;49.15;99925.97;5042662;28;20116;-48
2022/08/02 02:20:35;;;;;;;13.00;4.75;;;;;;;18.81;49.12;99921.03;5031990;28;20049;-49
2022/08/02 02:23:01;;;;;;;11.02;5.13;;;;;;;18.85;49.00;99924.25;5032152;28;20029;-50
2022/08/02 02:25:26;;;;;;;8.48;4.05;;;;;;;18.87;48.98;99920.31;5031134;28;20030;-52
2022/08/02 02:28:13;;;;;;;11.13;4.68;;;;;;;19.03;48.58;99924.03;5035998;28;20035;-51
2022/08/02 02:30:46;;;;;;;10.38;4.57;;;;;;;19.07;48.84;99928.06;5051679;28;20037;-50
2022/08/02 02:33:15;;;;;;;9.65;4.50;;;;;;;19.12;48.72;99927.56;5050716;28;20037;-50
2022/08/02 02:35:42;;;;;;;11.70;4.05;;;;;;;19.12;48.57;99914.00;5051863;28;20028;-48
2022/08/02 02:38:12;;;;;;;9.55;4.47;;;;;;;19.24;48.28;99915.25;5041034;28;20521;-53
2022/08/02 02:40:39;;;;;;;7.03;4.55;;;;;;;19.27;48.17;99919.50;5030511;28;20021;-46
2022/08/02 02:43:05;;;;;;;12.50;5.18;;;;;;;19.32;48.15;99922.50;5031738;28;20420;-50
2022/08/02 02:45:34;;;;;;;11.48;6.10;;;;;;;19.43;47.63;99932.97;5031936;28;20087;-47
2022/08/02 02:48:01;;;;;;;15.60;5.53;;;;;;;19.45;47.37;99921.94;5041410;28;20039;-53
2022/08/02 02:50:27;;;;;;;11.57;5.43;;;;;;;19.46;47.66;99923.63;5051508;28;20048;-53
2022/08/02 02:52:54;;;;;;;6.90;4.70;;;;;;;19.45;47.76;99911.94;5032594;28;20033;-52
2022/08/02 02:55:21;;;;;;;8.52;5.20;;;;;;;19.52;47.86;99925.59;5031628;28;20029;-57
2022/08/02 02:57:47;;;;;;;12.18;5.38;;;;;;;19.54;48.02;99926.28;5039093;28;20094;-48
2022/08/02 03:00:13;;;;;;;9.02;4.85;;;;;;;19.59;47.41;99923.00;5031230;28;20099;-54
2022/08/02 03:02:42;;;;;;;10.43;4.75;;;;;;;19.67;47.30;99920.25;5031231;28;20537;-54
2022/08/02 03:05:09;;;;;;;13.48;5.00;;;;;;;19.67;47.30;99914.81;5031449;28;20117;-49
2022/08/02 03:07:35;;;;;;;10.27;4.75;;;;;;;19.76;47.29;99913.72;5035849;28;20087;-52
2022/08/02 03:10:05;;;;;;;8.55;5.10;;;;;;;19.85;46.90;99919.94;5050743;28;20044;-52
2022/08/02 03:12:32;;;;;;;8.50;4.30;;;;;;;19.87;46.82;99914.31;5050881;28;20443;-50
2022/08/02 03:15:05;;;;;;;7.63;4.72;;;;;;;19.96;46.82;99918.69;5042558;28;20040;-50
2022/08/02 03:17:41;;;;;;;7.10;4.80;;;;;;;20.04;46.52;99921.34;5039446;28;20084;-49
2022/08/02 03:20:16;;;;;;;9.63;4.53;;;;;;;20.08;46.28;99919.09;5051049;28;20094;-47
2022/08/02 03:22:43;;;;;;;11.03;4.50;;;;;;;20.09;46.58;99923.50;5051232;28;20037;-51
2022/08/02 03:25:11;;;;;;;12.43;4.55;;;;;;;20.15;46.40;99921.94;5040888;28;20262;-54
2022/08/02 03:27:37;;;;;;;11.65;4.38;;;;;;;20.22;45.81;99918.28;5031113;28;20047;-55
2022/08/02 03:30:06;;;;;;;6.38;4.45;;;;;;;20.39;45.62;99926.25;5031061;28;20033;-52
2022/08/02 03:32:33;;;;;;;6.63;4.13;;;;;;;20.45;44.85;99927.41;5030947;28;20072;-49
2022/08/02 03:35:00;;;;;;;6.00;3.50;;;;;;;20.55;44.89;99924.41;5041710;28;20461;-52
2022/08/02 03:37:27;;;;;;;8.85;4.40;;;;;;;20.70;44.62;99925.25;5034931;28;20061;-54
2022/08/02 03:39:53;;;;;;;6.55;4.25;;;;;;;20.93;44.22;99924.31;5030864;28;20064;-49
2022/08/02 03:42:20;;;;;;;7.57;3.63;;;;;;;21.29;43.64;99918.06;5031073;28;20437;-53
2022/08/02 03:44:47;;;;;;;7.50;3.45;;;;;;;22.07;41.99;99913.81;5031222;28;20021;-47
2022/08/02 03:47:14;;;;;;;4.60;3.45;;;;;;;22.93;39.55;99887.28;5040766;28;20021;-53
2022/08/02 03:49:41;;;;;;;8.05;3.70;;;;;;;24.20;37.48;99910.44;5039325;28;20033;-50
2022/08/02 03:52:07;;;;;;;7.45;3.90;;;;;;;25.30;35.37;99914.31;5039578;28;20091;-50
2022/08/02 03:54:32;;;;;;;6.00;3.50;;;;;;;26.44;33.05;99911.84;5040681;28;20029;-51
2022/08/02 03:56:58;;;;;;;7.22;3.50;;;;;;;27.47;31.03;99900.22;5041146;28;20118;-49
2022/08/02 03:59:23;;;;;;;5.75;3.22;;;;;;;28.55;29.40;99902.06;5041165;28;20496;-50
2022/08/02 04:01:49;;;;;;;5.38;3.45;;;;;;;29.44;27.95;99908.31;5040348;28;20425;-47
2022/08/02 04:04:14;;;;;;;7.82;3.60;;;;;;;30.37;26.73;99897.97;5050703;28;20029;-49
2022/08/02 04:06:40;;;;;;;7.60;3.78;;;;;;;31.25;25.42;99890.03;5041526;28;20457;-48
2022/08/02 04:09:05;;;;;;;7.32;3.38;;;;;;;32.33;23.66;99906.78;5036155;28;20037;-52
2022/08/02 04:11:31;;;;;;;8.63;3.42;;;;;;;33.04;22.51;99913.78;5041523;28;20032;-51
2022/08/02 04:14:03;;;;;;;8.98;3.25;;;;;;;33.63;22.13;99914.50;5040150;28;20461;-47
2022/08/02 04:16:46;;;;;;;9.95;3.58;;;;;;;34.55;20.95;99913.91;5038833;28;20040;-49
2022/08/02 04:19:24;;;;;;;5.85;3.28;;;;;;;34.97;20.86;99911.78;5038406;28;20029;-57
2022/08/02 04:21:51;;;;;;;4.85;3.45;;;;;;;35.23;20.09;99914.47;5041410;28;20191;-54
2022/08/02 04:24:21;;;;;;;7.93;3.40;;;;;;;34.96;20.50;99912.91;5041318;28;20037;-53
2022/08/02 04:26:47;;;;;;;7.57;3.58;;;;;;;34.90;20.47;99912.09;5042722;28;20561;-54
2022/08/02 04:29:14;;;;;;;8.38;3.78;;;;;;;34.81;20.04;99897.94;5045080;28;20032;-54
2022/08/02 04:31:41;;;;;;;6.38;3.58;;;;;;;35.63;19.45;99907.81;5045142;28;20056;-50
2022/08/02 04:34:07;;;;;;;8.02;3.72;;;;;;;35.88;19.02;99921.84;5045068;28;20044;-57
2022/08/02 04:36:33;;;;;;;4.40;3.15;;;;;;;35.47;19.30;99895.13;5042590;28;20029;-51
2022/08/02 04:38:58;;;;;;;5.82;3.10;;;;;;;35.89;19.15;99904.81;5041858;28;20482;-54
2022/08/02 04:41:36;;;;;;;3.97;2.95;;;;;;;36.43;18.14;99916.03;5043632;28;20036;-55
2022/08/02 04:44:02;;;;;;;4.88;3.47;;;;;;;36.56;18.29;99908.13;5044286;28;20445;-52
2022/08/02 04:46:27;;;;;;;6.88;3.20;;;;;;;37.32;17.20;99908.25;5041685;28;20034;-51
2022/08/02 04:48:53;;;;;;;6.40;3.25;;;;;;;37.37;17.38;99903.72;5051112;28;20496;-53
2022/08/02 04:51:18;;;;;;;8.45;3.00;;;;;;;37.26;17.52;99905.81;5054121;28;20083;-54
2022/08/02 04:53:44;;;;;;;7.53;3.13;;;;;;;37.53;16.73;99910.75;5054051;28;20029;-52
2022/08/02 04:56:10;;;;;;;6.05;3.20;;;;;;;37.48;17.34;99913.59;5052816;28;20028;-53
2022/08/02 04:58:35;;;;;;;7.47;3.25;;;;;;;36.98;17.67;99919.59;5053557;28;20025;-48
2022/08/02 05:01:01;;;;;;;6.68;3.20;;;;;;;36.55;17.87;99914.81;5045345;28;20033;-52
2022/08/02 05:03:27;;;;;;;6.68;3.53;;;;;;;36.77;17.93;99906.75;5033783;28;20036;-56
2022/08/02 05:05:52;;;;;;;3.97;3.08;;;;;;;37.54;17.05;99912.41;5037013;28;20041;-52
2022/08/02 05:08:18;;;;;;;7.55;3.58;;;;;;;38.50;16.16;99925.34;5053481;28;20040;-54
2022/08/02 05:10:43;;;;;;;5.68;3.13;;;;;;;39.26;15.57;99902.47;5053476;28;20025;-49
2022/08/02 05:13:09;;;;;;;4.18;2.95;;;;;;;39.87;14.74;99904.97;5053220;28;20373;-54
2022/08/02 05:15:34;;;;;;;5.07;3.13;;;;;;;39.53;15.28;99903.53;5051371;28;20104;-53
2022/08/02 05:18:00;;;;;;;4.25;2.88;;;;;;;39.54;15.37;99904.38;5053470;28;20041;-52
2022/08/02 05:20:26;;;;;;;7.20;3.30;;;;;;;40.31;14.53;99904.41;5053169;28;20056;-48
2022/08/02 05:22:51;;;;;;;5.85;3.05;;;;;;;41.77;13.48;99907.34;5053164;28;20535;-46
2022/08/02 05:25:16;;;;;;;8.13;3.13;;;;;;;43.31;12.09;99910.50;5052167;28;20073;-48
2022/08/02 05:27:42;;;;;;;5.78;3.30;;;;;;;43.92;11.69;99900.63;5052122;28;20396;-51
2022/08/02 05:30:08;;;;;;;7.25;2.80;;;;;;;44.44;11.17;99902.03;5053014;28;20029;-53
2022/08/02 05:32:34;;;;;;;2.85;2.53;;;;;;;44.55;10.51;99907.22;5053164;28;20035;-55
2022/08/02 05:35:00;;;;;;;4.22;3.00;;;;;;;43.48;11.45;99917.97;5040433;28;20484;-52
2022/08/02 05:37:26;;;;;;;5.50;2.65;;;;;;;43.20;11.62;99904.41;5033569;28;20055;-52
2022/08/02 05:39:52;;;;;;;3.33;2.83;;;;;;;41.98;12.83;99898.19;5033428;28;20120;-52
2022/08/02 05:42:17;;;;;;;4.30;2.80;;;;;;;40.15;13.90;99893.59;5051932;28;20158;-51
2022/08/02 05:44:42;;;;;;;3.17;2.70;;;;;;;38.79;15.46;99894.25;5052571;28;20465;-52
2022/08/02 05:47:08;;;;;;;6.38;2.60;;;;;;;37.95;16.18;99898.91;5052996;28;20406;-47
2022/08/02 05:49:34;;;;;;;4.78;2.70;;;;;;;38.43;15.90;99894.94;5042293;28;20452;-52
2022/08/02 05:52:13;;;;;;;4.75;2.70;;;;;;;40.66;13.93;99887.69;5032356;28;20034;-55
2022/08/02 05:54:38;;;;;;;4.38;3.13;;;;;;;40.61;13.97;99883.03;5042793;28;20082;-52
2022/08/02 05:57:14;;;;;;;5.13;2.65;;;;;;;39.76;14.41;99881.97;5046311;28;20436;-52
2022/08/02 05:59:52;;;;;;;5.03;3.17;;;;;;;40.59;14.24;99895.78;5032830;28;20064;-53
2022/08/02 06:03:21;;;;;;;6.05;3.40;;;;;;;43.12;12.53;99883.59;5032321;28;20051;-54
2022/08/02 06:06:10;;;;;;;7.65;2.70;;;;;;;44.69;11.75;99856.88;5030071;28;20144;-57
2022/08/02 06:08:46;;;;;;;6.32;2.97;;;;;;;44.10;11.43;99887.13;5030668;28;20112;-54
2022/08/02 06:11:16;;;;;;;5.38;3.08;;;;;;;42.12;12.77;99890.38;5031440;28;20501;-53
2022/08/02 06:13:42;;;;;;;5.45;3.50;;;;;;;41.49;13.24;99882.38;5035694;28;20343;-51
2022/08/02 06:16:09;;;;;;;7.15;3.17;;;;;;;41.73;12.99;99883.88;5040212;28;20441;-54
2022/08/02 06:18:35;;;;;;;4.93;2.78;;;;;;;44.14;11.32;99888.13;5036055;28;20128;-50
2022/08/02 06:21:03;;;;;;;6.63;3.70;;;;;;;46.16;9.82;99888.94;5038347;28;20033;-71
2022/08/02 06:23:29;;;;;;;6.40;3.45;;;;;;;47.32;9.29;99888.81;5030783;28;20061;-55
2022/08/02 06:25:56;;;;;;;7.60;3.83;;;;;;;47.86;9.28;99884.22;5029494;28;20045;-51
2022/08/02 06:28:23;;;;;;;4.53;3.55;;;;;;;49.32;8.19;99875.09;5038892;28;20811;-57
2022/08/02 06:30:49;;;;;;;6.15;3.70;;;;;;;48.96;8.10;99884.78;5043594;28;20036;-58
2022/08/02 06:33:14;;;;;;;11.15;3.58;;;;;;;48.74;7.82;99875.13;5040125;28;20379;-59
2022/08/02 06:36:00;;;;;;;10.57;3.40;;;;;;;49.18;8.29;99876.53;5034125;28;20053;-56
2022/08/02 06:38:31;;;;;;;7.22;3.40;;;;;;;47.02;9.32;99869.56;5033901;28;20030;-56
2022/08/02 06:41:06;;;;;;;5.22;3.08;;;;;;;46.96;9.48;99879.53;5036268;28;20033;-55
2022/08/02 06:43:51;;;;;;;9.50;3.38;;;;;;;49.48;8.11;99875.69;5031317;28;20044;-58
2022/08/02 06:46:17;;;;;;;6.22;3.30;;;;;;;50.71;6.99;99873.13;5035392;28;20116;-56
2022/08/02 06:48:42;;;;;;;6.43;3.70;;;;;;;49.07;7.90;99870.69;5051242;28;20060;-59
2022/08/02 06:51:07;;;;;;;8.48;3.50;;;;;;;48.07;8.32;99857.44;5051526;28;20057;-60
2022/08/02 06:53:33;;;;;;;6.63;2.65;;;;;;;48.10;8.07;99879.38;5051010;28;20487;-60
2022/08/02 06:55:59;;;;;;;7.55;2.90;;;;;;;46.65;8.97;99873.56;5049295;28;20040;-53
2022/08/02 06:58:24;;;;;;;8.57;2.88;;;;;;;45.11;10.36;99869.03;5030678;28;20029;-53
2022/08/02 07:00:50;;;;;;;7.68;3.45;;;;;;;44.21;10.75;99870.59;5044269;28;20039;-58
2022/08/02 07:03:16;;;;;;;7.00;2.72;;;;;;;43.94;10.74;99872.91;5050846;28;20155;-57
2022/08/02 07:05:47;;;;;;;5.65;2.58;;;;;;;44.92;10.02;99878.09;5051355;28;20118;-59
2022/08/02 07:08:16;;;;;;;5.43;2.80;;;;;;;47.43;8.34;99874.84;5045952;28;20033;-60
2022/08/02 07:10:42;;;;;;;4.90;3.10;;;;;;;49.07;7.62;99864.22;5030946;28;20060;-61
2022/08/02 07:13:08;;;;;;;7.32;3.60;;;;;;;49.74;7.53;99865.41;5038333;28;20420;-59
2022/08/02 07:15:34;;;;;;;6.38;3.47;;;;;;;49.24;7.18;99863.66;5040086;28;20033;-66
2022/08/02 07:17:59;;;;;;;7.93;2.80;;;;;;;49.84;7.16;99864.69;5030961;28;20049;-61
2022/08/02 07:20:25;;;;;;;3.67;2.78;;;;;;;50.38;6.61;99855.81;5042393;28;20120;-61
2022/08/02 07:22:50;;;;;;;4.32;2.80;;;;;;;50.94;6.36;99875.75;5050746;28;20037;-60
2022/08/02 07:25:16;;;;;;;5.35;2.92;;;;;;;51.50;6.13;99869.03;5050743;28;20163;-60
2022/08/02 07:27:42;;;;;;;3.42;2.42;;;;;;;51.61;5.80;99866.16;5051071;28;20037;-61
2022/08/02 07:30:08;;;;;;;7.43;2.58;;;;;;;51.64;5.67;99859.69;5032410;28;20066;-61
2022/08/02 07:32:33;;;;;;;5.72;2.90;;;;;;;52.40;5.19;99865.44;5030836;28;20037;-60
2022/08/02 07:35:01;;;;;;;3.45;2.70;;;;;;;53.20;5.01;99873.81;5035183;28;20028;-61
2022/08/02 07:37:31;;;;;;;2.50;2.30;;;;;;;53.80;4.58;99868.13;5043333;28;20112;-60
2022/08/02 07:39:57;;;;;;;4.85;3.33;;;;;;;54.21;4.12;99875.16;5039397;28;20037;-62
2022/08/02 07:42:23;;;;;;;3.13;2.75;;;;;;;54.77;4.10;99869.28;5040459;28;20107;-61
2022/08/02 07:44:48;;;;;;;3.45;3.10;;;;;;;54.78;3.80;99865.19;5038961;28;20078;-59
2022/08/02 07:47:14;;;;;;;4.60;4.13;;;;;;;54.41;3.85;99845.94;5040724;28;20041;-60
2022/08/02 07:49:39;;;;;;;4.20;3.42;;;;;;;53.92;4.38;99861.09;5030919;28;20037;-61
2022/08/02 07:52:05;;;;;;;4.22;3.83;;;;;;;54.58;4.10;99847.81;5031424;28;20442;-60
2022/08/02 07:54:30;;;;;;;6.28;3.85;;;;;;;55.02;4.18;99835.81;5031305;28;20037;-60
2022/08/02 07:56:56;;;;;;;5.32;4.25;;;;;;;55.03;3.74;99849.75;5043442;28;20040;-61
2022/08/02 07:59:21;;;;;;;4.65;4.03;;;;;;;54.92;3.88;99855.59;5037126;28;20053;-60
2022/08/02 08:01:48;;;;;;;3.40;3.10;;;;;;;54.17;3.76;99868.66;5034878;28;20208;-60
2022/08/02 08:04:16;;;;;;;3.40;3.20;;;;;;;52.68;5.03;99870.28;5038560;28;20082;-61
2022/08/02 08:06:42;;;;;;;2.75;2.63;;;;;;;51.69;5.28;99856.44;5054260;28;20045;-59
2022/08/02 08:09:11;;;;;;;2.25;2.10;;;;;;;51.39;5.03;99860.44;5054450;28;20098;-61
2022/08/02 08:11:37;;;;;;;2.65;2.20;;;;;;;49.52;6.21;99845.28;5054600;28;20025;-64
2022/08/02 08:14:03;;;;;;;3.75;2.60;;;;;;;48.89;6.77;99878.19;5054076;28;20382;-59
2022/08/02 08:16:29;;;;;;;4.30;2.10;;;;;;;47.04;7.87;99855.03;5034282;28;20037;-61
2022/08/02 08:18:55;;;;;;;4.45;2.10;;;;;;;46.50;8.23;99851.75;5023392;28;20432;-60
2022/08/02 08:21:20;;;;;;;3.42;1.98;;;;;;;44.04;9.54;99846.25;5043538;28;20103;-61
2022/08/02 08:23:46;;;;;;;2.83;2.03;;;;;;;41.36;11.73;99850.50;5045434;28;20047;-64
2022/08/02 08:26:11;;;;;;;5.60;2.20;;;;;;;39.07;13.51;99813.06;5044970;28;20409;-60
2022/08/02 08:28:37;;;;;;;5.20;2.28;;;;;;;37.41;15.15;99823.81;5042957;28;20033;-64
2022/08/02 08:31:03;;;;;;;5.18;1.95;;;;;;;36.33;15.22;99841.72;5044868;28;20198;-60
2022/08/02 08:33:28;;;;;;;5.20;2.20;;;;;;;35.52;15.91;99856.13;5044684;28;20370;-61
2022/08/02 08:35:54;;;;;;;2.83;1.70;;;;;;;34.80;16.76;99846.22;5039253;28;20030;-60
2022/08/02 08:38:20;;;;;;;2.15;1.42;;;;;;;34.25;17.63;99835.88;5037936;28;20048;-60
2022/08/02 08:40:48;;;;;;;2.35;1.80;;;;;;;33.92;17.80;99832.59;5054101;28;20025;-60
2022/08/02 08:43:13;;;;;;;4.88;1.60;;;;;;;33.57;18.31;99834.25;5054063;28;20025;-60
2022/08/02 08:45:42;;;;;;;3.03;1.50;;;;;;;33.17;18.76;99833.94;5043333;28;20033;-63
2022/08/02 08:48:14;;;;;;;1.77;1.67;;;;;;;32.98;17.94;99847.50;5044118;28;20029;-59
2022/08/02 08:50:48;;;;;;;1.40;1.30;;;;;;;32.24;18.69;99809.47;5035736;28;20025;-62
2022/08/02 08:53:14;;;;;;;4.13;1.42;;;;;;;31.97;19.57;99834.47;5043568;28;20029;-58
2022/08/02 08:55:41;;;;;;;2.75;1.88;;;;;;;31.61;20.98;99837.78;5032198;28;20083;-61
2022/08/02 08:58:06;;;;;;;3.65;2.20;;;;;;;30.94;22.45;99838.78;5033824;28;20080;-61
2022/08/02 09:00:34;;;;;;;2.63;1.92;;;;;;;30.74;22.66;99830.25;5042165;28;20385;-61
2022/08/02 09:03:04;;;;;;;3.45;2.10;;;;;;;30.60;22.40;99829.78;5053233;28;20033;-61
2022/08/02 09:05:33;;;;;;;3.50;2.28;;;;;;;30.47;23.03;99829.09;5051396;28;20033;-60
2022/08/02 09:07:59;;;;;;;4.70;2.65;;;;;;;30.14;24.00;99833.59;5053544;28;20068;-61
2022/08/02 09:10:30;;;;;;;4.85;2.70;;;;;;;30.00;24.04;99826.75;5052588;28;20113;-60
2022/08/02 09:13:17;;;;;;;5.28;2.63;;;;;;;29.66;24.43;99849.69;5045869;28;20039;-60
2022/08/02 09:15:44;;;;;;;6.68;2.88;;;;;;;28.67;26.66;99811.13;5044930;28;20068;-62
2022/08/02 09:18:11;;;;;;;3.75;2.50;;;;;;;28.50;27.24;99828.44;5049965;28;20040;-64
2022/08/02 09:20:58;;;;;;;5.20;3.35;;;;;;;28.41;26.28;99831.81;5052350;28;20029;-61
2022/08/02 09:23:25;;;;;;;7.57;2.63;;;;;;;28.28;26.97;99831.00;5032860;28;20053;-60
2022/08/02 09:26:10;;;;;;;5.00;2.00;;;;;;;28.76;25.87;99828.13;5047455;28;20440;-59
2022/08/02 09:28:42;;;;;;;5.20;2.50;;;;;;;29.06;25.50;99824.34;5036842;28;20039;-60
2022/08/02 09:31:13;;;;;;;4.57;2.20;;;;;;;29.25;25.04;99813.94;5044413;28;20036;-60
2022/08/02 09:33:41;;;;;;;3.80;2.40;;;;;;;29.22;25.19;99789.63;5052896;28;20041;-60
2022/08/02 09:36:14;;;;;;;2.65;2.00;;;;;;;29.48;24.73;99798.34;5052083;28;20033;-61
2022/08/02 09:38:51;;;;;;;3.47;2.20;;;;;;;29.46;24.86;99783.97;5052675;28;20511;-63
2022/08/02 09:41:23;;;;;;;3.03;2.30;;;;;;;29.60;25.02;99807.38;5048764;28;20036;-60
2022/08/02 09:43:49;;;;;;;3.88;2.50;;;;;;;29.50;25.40;99808.03;5048230;28;20070;-61
2022/08/02 09:46:20;;;;;;;4.28;2.22;;;;;;;29.62;25.15;99813.47;5040861;28;20036;-63
2022/08/02 09:48:47;;;;;;;4.95;2.63;;;;;;;29.51;24.84;99781.31;5048698;28;20060;-57
2022/08/02 09:51:20;;;;;;;2.47;2.28;;;;;;;29.61;24.71;99817.31;5042556;28;20055;-61
2022/08/02 09:53:48;;;;;;;2.30;2.10;;;;;;;29.23;25.24;99810.59;5038546;28;20079;-61
2022/08/02 09:56:16;;;;;;;2.20;1.98;;;;;;;29.05;24.81;99829.00;5041094;28;20116;-61
2022/08/02 09:58:41;;;;;;;2.95;2.15;;;;;;;28.83;25.59;99819.75;5041859;28;20052;-63
2022/08/02 10:01:07;;;;;;;3.25;2.30;;;;;;;28.64;26.10;99817.16;5042272;28;20467;-62
2022/08/02 10:03:33;;;;;;;4.32;2.20;;;;;;;28.67;26.12;99811.13;5041425;28;20572;-60
2022/08/02 10:06:00;;;;;;;3.92;2.00;;;;;;;28.97;25.88;99804.59;5040472;28;20482;-60
2022/08/02 10:08:27;;;;;;;3.78;2.28;;;;;;;29.24;25.24;99809.50;5040056;28;20377;-60
2022/08/02 10:10:59;;;;;;;3.33;2.53;;;;;;;29.27;25.53;99802.63;5041659;28;20029;-60
2022/08/02 10:13:33;;;;;;;4.82;2.28;;;;;;;29.21;25.76;99810.00;5045089;28;20400;-60
2022/08/02 10:16:01;;;;;;;4.75;2.38;;;;;;;29.15;25.97;99805.47;5051136;28;20079;-58
2022/08/02 10:18:27;;;;;;;2.85;2.20;;;;;;;29.00;25.68;99793.09;5041911;28;20447;-60
2022/08/02 10:20:55;;;;;;;6.30;2.20;;;;;;;29.07;25.40;99818.56;5030833;28;20120;-61
2022/08/02 10:23:23;;;;;;;5.68;2.22;;;;;;;29.20;25.53;99806.41;5030085;28;20116;-59
2022/08/02 10:25:50;;;;;;;3.15;1.85;;;;;;;29.47;24.90;99797.50;5032396;28;20025;-59
2022/08/02 10:28:18;;;;;;;2.80;2.20;;;;;;;29.63;24.28;99793.06;5032796;28;20033;-57
2022/08/02 10:30:47;;;;;;;3.10;2.05;;;;;;;29.59;24.57;99791.09;5031343;28;20068;-57
2022/08/02 10:33:16;;;;;;;3.63;2.50;;;;;;;29.81;24.23;99806.88;5032281;28;20042;-66
2022/08/02 10:35:45;;;;;;;5.35;2.13;;;;;;;29.83;24.49;99802.75;5032178;28;20037;-52
2022/08/02 10:38:11;;;;;;;2.85;2.05;;;;;;;30.15;23.83;99807.69;5032713;28;20034;-55
2022/08/02 10:40:51;;;;;;;3.15;2.47;;;;;;;30.56;23.06;99801.84;5032018;28;20041;-60
2022/08/02 10:43:35;;;;;;;4.05;2.30;;;;;;;30.47;23.44;99790.41;5032215;28;20025;-59
2022/08/02 10:46:22;;;;;;;2.13;1.80;;;;;;;30.26;23.87;99796.75;5031839;28;20155;-60
2022/08/02 10:49:09;;;;;;;3.75;2.20;;;;;;;30.40;23.13;99784.25;5032168;28;20064;-60
2022/08/02 10:51:53;;;;;;;2.75;2.15;;;;;;;30.65;23.02;99789.28;5032072;28;20461;-61
2022/08/02 10:54:26;;;;;;;3.17;2.20;;;;;;;30.83;22.57;99784.50;5032180;28;20453;-62
2022/08/02 10:56:54;;;;;;;5.30;1.90;;;;;;;31.05;22.33;99787.19;5031942;28;20033;-59
2022/08/02 10:59:29;;;;;;;5.07;1.90;;;;;;;31.29;22.10;99778.59;5031862;28;20084;-59
2022/08/02 11:02:00;;;;;;;6.40;2.30;;;;;;;31.14;22.29;99783.97;5031704;28;20113;-61
2022/08/02 11:04:36;;;;;;;2.17;2.03;;;;;;;31.10;22.66;99768.97;5031466;28;20029;-60
2022/08/02 11:07:13;;;;;;;3.40;2.22;;;;;;;31.24;22.48;99772.22;5030964;28;20347;-62
2022/08/02 11:09:40;;;;;;;3.03;2.30;;;;;;;31.20;22.32;99771.88;5031870;28;20499;-59
2022/08/02 11:12:08;;;;;;;2.55;2.20;;;;;;;31.09;22.01;99759.88;5031561;28;20040;-59
2022/08/02 11:14:36;;;;;;;3.88;2.20;;;;;;;30.91;22.18;99774.91;5031407;28;20025;-58
2022/08/02 11:17:04;;;;;;;3.33;2.10;;;;;;;30.74;22.83;99773.06;5031557;28;20099;-61
2022/08/02 11:19:30;;;;;;;3.85;2.03;;;;;;;30.58;22.83;99776.72;5031485;28;20394;-60
2022/08/02 11:22:21;;;;;;;3.97;2.00;;;;;;;30.68;22.75;99768.59;5031659;28;20025;-59
2022/08/02 11:24:47;;;;;;;3.30;2.80;;;;;;;30.44;22.87;99771.59;5031607;28;20041;-60
2022/08/02 11:27:20;;;;;;;5.10;3.05;;;;;;;30.17;23.03;99782.56;5032167;28;20103;-61
2022/08/02 11:29:49;;;;;;;4.85;2.63;;;;;;;29.64;23.61;99775.44;5031878;28;20029;-60
2022/08/02 11:32:21;;;;;;;5.18;2.83;;;;;;;29.54;24.10;99786.31;5032018;28;20030;-58
2022/08/02 11:34:49;;;;;;;3.65;2.15;;;;;;;29.35;24.20;99769.97;5030342;28;20038;-63
2022/08/02 11:37:34;;;;;;;3.65;2.28;;;;;;;29.19;24.08;99770.81;5043429;28;20443;-60
2022/08/02 11:40:00;;;;;;;4.53;2.87;;;;;;;29.03;24.39;99764.19;5047089;28;20033;-61
2022/08/02 11:42:36;;;;;;;3.13;2.60;;;;;;;29.04;24.14;99760.34;5048912;28;20029;-62